createdAt,value
2018-02-21T00:01:06.047Z,79.64
2018-02-21T00:03:33.633Z,79.83
2018-02-21T00:06:01.213Z,80.06
2018-02-21T00:08:28.839Z,79.69
2018-02-21T00:10:56.431Z,79.77
2018-02-21T00:13:24.015Z,79.35
2018-02-21T00:15:51.669Z,79.33
2018-02-21T00:18:19.717Z,79.23
2018-02-21T00:20:47.374Z,78.98
2018-02-21T00:23:15.218Z,79.02
2018-02-21T00:25:42.780Z,79.54
2018-02-21T00:28:10.358Z,80.04
2018-02-21T00:30:38.038Z,79.94
2018-02-21T00:33:05.606Z,79.80
2018-02-21T00:35:33.173Z,80.03
2018-02-21T00:38:00.773Z,79.94
2018-02-21T00:40:28.337Z,79.97
2018-02-21T00:42:55.919Z,80.06
2018-02-21T00:45:23.554Z,80.42
2018-02-21T00:47:51.194Z,80.32
2018-02-21T00:50:18.781Z,80.48
2018-02-21T00:52:46.396Z,80.70
2018-02-21T00:55:14.000Z,80.26
2018-02-21T00:57:41.571Z,80.28
2018-02-21T01:00:09.502Z,80.90
2018-02-21T01:02:37.181Z,80.76
2018-02-21T01:05:04.813Z,80.89
2018-02-21T01:07:32.490Z,81.09
2018-02-21T01:10:00.124Z,81.00
2018-02-21T01:12:27.754Z,81.09
2018-02-21T01:14:55.386Z,81.04
2018-02-21T01:17:22.963Z,81.39
2018-02-21T01:19:50.521Z,81.27
2018-02-21T01:22:18.206Z,81.21
2018-02-21T01:24:45.762Z,81.33
2018-02-21T01:27:13.387Z,81.11
2018-02-21T01:29:41.091Z,81.58
2018-02-21T01:32:08.652Z,81.61
2018-02-21T01:34:36.208Z,81.67
2018-02-21T01:37:04.104Z,81.99
2018-02-21T01:39:31.677Z,81.96
2018-02-21T01:41:59.257Z,82.08
2018-02-21T01:44:26.863Z,82.08
2018-02-21T01:46:54.413Z,82.05
2018-02-21T01:49:21.971Z,82.21
2018-02-21T01:51:49.598Z,82.09
2018-02-21T01:54:17.162Z,82.15
2018-02-21T01:56:44.801Z,82.10
2018-02-21T01:59:12.433Z,81.89
2018-02-21T02:01:40.000Z,82.32
2018-02-21T02:04:09.116Z,81.87
2018-02-21T02:06:37.062Z,81.98
2018-02-21T02:09:04.709Z,81.70
2018-02-21T02:11:32.286Z,81.80
2018-02-21T02:13:59.905Z,82.05
2018-02-21T02:16:27.471Z,82.06
2018-02-21T02:18:55.043Z,81.91
2018-02-21T02:21:22.948Z,82.00
2018-02-21T02:23:50.880Z,82.12
2018-02-21T02:26:18.454Z,82.29
2018-02-21T02:28:46.080Z,82.21
2018-02-21T02:31:13.663Z,82.32
2018-02-21T02:33:41.240Z,82.44
2018-02-21T02:36:08.869Z,82.53
2018-02-21T02:38:41.156Z,82.34
2018-02-21T02:41:08.777Z,82.28
2018-02-21T02:43:36.374Z,82.13
2018-02-21T02:46:03.945Z,82.58
2018-02-21T02:48:31.563Z,82.80
2018-02-21T02:50:59.150Z,82.81
2018-02-21T02:53:26.717Z,83.06
2018-02-21T02:55:54.874Z,82.86
2018-02-21T02:58:22.459Z,82.82
2018-02-21T03:00:50.019Z,82.63
2018-02-21T03:03:17.637Z,82.60
2018-02-21T03:05:45.316Z,82.61
2018-02-21T03:08:12.891Z,82.51
2018-02-21T03:10:40.604Z,82.59
2018-02-21T03:13:08.181Z,82.14
2018-02-21T03:15:35.757Z,82.48
2018-02-21T03:18:03.364Z,82.33
2018-02-21T03:20:30.980Z,82.55
2018-02-21T03:22:58.544Z,82.42
2018-02-21T03:25:26.157Z,82.73
2018-02-21T03:27:53.733Z,82.80
2018-02-21T03:30:21.296Z,82.27
2018-02-21T03:32:49.851Z,82.59
2018-02-21T03:35:17.424Z,82.69
2018-02-21T03:37:45.069Z,82.29
2018-02-21T03:40:12.715Z,82.18
2018-02-21T03:42:40.293Z,82.33
2018-02-21T03:45:07.864Z,81.89
2018-02-21T03:47:35.646Z,81.96
2018-02-21T03:50:03.226Z,81.88
2018-02-21T03:52:30.830Z,82.24
2018-02-21T03:54:58.480Z,82.27
2018-02-21T03:57:26.110Z,82.27
2018-02-21T03:59:53.693Z,82.51
2018-02-21T04:02:21.624Z,82.83
2018-02-21T04:04:49.216Z,82.67
2018-02-21T04:07:17.863Z,82.80
2018-02-21T04:09:52.447Z,82.97
2018-02-21T04:12:20.016Z,82.36
2018-02-21T04:14:47.646Z,82.40
2018-02-21T04:17:15.288Z,82.44
2018-02-21T04:19:43.922Z,82.36
2018-02-21T04:22:11.485Z,82.48
2018-02-21T04:24:41.278Z,82.47
2018-02-21T04:27:08.840Z,82.34
2018-02-21T04:29:39.539Z,82.22
2018-02-21T04:32:07.194Z,81.71
2018-02-21T04:34:34.780Z,81.82
2018-02-21T04:37:02.356Z,81.58
2018-02-21T04:39:30.010Z,81.63
2018-02-21T04:41:57.578Z,81.65
2018-02-21T04:44:25.159Z,81.45
2018-02-21T04:46:52.784Z,81.68
2018-02-21T04:49:20.376Z,81.61
2018-02-21T04:51:47.965Z,81.33
2018-02-21T04:54:30.677Z,81.67
2018-02-21T04:57:04.145Z,81.79
2018-02-21T04:59:37.369Z,81.55
2018-02-21T05:02:04.980Z,81.40
2018-02-21T05:04:32.609Z,81.29
2018-02-21T05:07:00.294Z,81.18
2018-02-21T05:09:28.289Z,81.04
2018-02-21T05:11:55.857Z,81.06
2018-02-21T05:14:23.493Z,81.20
2018-02-21T05:16:51.049Z,81.43
2018-02-21T05:19:18.613Z,81.28
2018-02-21T05:21:46.243Z,80.95
2018-02-21T05:24:13.813Z,80.95
2018-02-21T05:26:41.404Z,80.49
2018-02-21T05:29:10.428Z,80.75
2018-02-21T05:31:38.022Z,80.76
2018-02-21T05:34:05.601Z,80.65
2018-02-21T05:36:33.524Z,80.89
2018-02-21T05:39:01.090Z,81.16
2018-02-21T05:41:28.658Z,81.44
2018-02-21T05:43:56.327Z,80.99
2018-02-21T05:46:23.914Z,80.83
2018-02-21T05:48:51.503Z,80.91
2018-02-21T05:51:19.343Z,81.09
2018-02-21T05:53:46.968Z,81.13
2018-02-21T05:56:14.544Z,81.28
2018-02-21T05:58:42.275Z,81.18
2018-02-21T06:01:09.856Z,80.88
2018-02-21T06:03:37.455Z,80.91
2018-02-21T06:06:05.132Z,80.85
2018-02-21T06:08:33.468Z,81.09
2018-02-21T06:11:01.218Z,81.19
2018-02-21T06:13:28.831Z,81.23
2018-02-21T06:15:56.412Z,81.33
2018-02-21T06:18:24.028Z,81.55
2018-02-21T06:20:51.656Z,81.82
2018-02-21T06:23:19.294Z,81.49
2018-02-21T06:25:46.860Z,82.17
2018-02-21T06:28:14.974Z,81.24
2018-02-21T06:30:42.542Z,81.86
2018-02-21T06:33:10.144Z,81.63
2018-02-21T06:35:37.820Z,81.66
2018-02-21T06:38:05.450Z,81.92
2018-02-21T06:40:33.586Z,81.94
2018-02-21T06:43:01.200Z,81.84
2018-02-21T06:45:28.843Z,81.81
2018-02-21T06:47:56.415Z,82.05
2018-02-21T06:50:24.032Z,82.11
2018-02-21T06:52:51.605Z,82.21
2018-02-21T06:55:19.169Z,82.06
2018-02-21T06:57:47.030Z,82.29
2018-02-21T07:00:14.617Z,82.67
2018-02-21T07:02:42.237Z,82.81
2018-02-21T07:05:09.845Z,82.59
2018-02-21T07:07:38.202Z,82.45
2018-02-21T07:10:05.788Z,82.74
2018-02-21T07:12:33.545Z,82.59
2018-02-21T07:15:01.150Z,82.62
2018-02-21T07:17:28.709Z,82.47
2018-02-21T07:19:56.399Z,82.47
2018-02-21T07:22:23.974Z,82.51
2018-02-21T07:24:52.111Z,82.79
2018-02-21T07:27:19.994Z,82.78
2018-02-21T07:29:47.552Z,82.94
2018-02-21T07:32:15.125Z,82.69
2018-02-21T07:34:43.005Z,82.98
2018-02-21T07:37:10.899Z,82.99
2018-02-21T07:39:38.483Z,83.22
2018-02-21T07:42:06.118Z,83.02
2018-02-21T07:44:33.739Z,82.82
2018-02-21T07:47:01.313Z,82.83
2018-02-21T07:49:28.948Z,83.15
2018-02-21T07:51:56.617Z,83.16
2018-02-21T07:54:24.176Z,82.57
2018-02-21T07:56:51.870Z,83.09
2018-02-21T07:59:19.453Z,82.92
2018-02-21T08:01:47.050Z,82.91
2018-02-21T08:04:14.709Z,82.54
2018-02-21T08:06:42.321Z,82.89
2018-02-21T08:09:09.892Z,82.83
2018-02-21T08:11:37.724Z,82.64
2018-02-21T08:14:06.253Z,82.69
2018-02-21T08:16:33.838Z,82.80
2018-02-21T08:19:01.461Z,82.18
2018-02-21T08:21:29.065Z,82.20
2018-02-21T08:23:56.647Z,82.10
2018-02-21T08:26:24.256Z,82.05
2018-02-21T08:28:51.826Z,81.78
2018-02-21T08:31:19.393Z,81.98
2018-02-21T08:33:47.018Z,81.79
2018-02-21T08:36:14.631Z,82.01
2018-02-21T08:38:42.238Z,82.15
2018-02-21T08:41:09.867Z,82.40
2018-02-21T08:43:38.313Z,81.58
2018-02-21T08:46:05.877Z,81.75
2018-02-21T08:48:33.513Z,81.79
2018-02-21T08:51:01.082Z,81.94
2018-02-21T08:53:28.649Z,81.95
2018-02-21T08:55:56.555Z,81.76
2018-02-21T08:58:24.206Z,81.75
2018-02-21T09:00:51.830Z,81.98
2018-02-21T09:03:19.474Z,82.10
2018-02-21T09:05:47.037Z,82.06
2018-02-21T09:08:14.662Z,82.04
2018-02-21T09:10:42.289Z,81.63
2018-02-21T09:13:09.862Z,81.79
2018-02-21T09:15:37.507Z,81.45
2018-02-21T09:18:05.138Z,81.83
2018-02-21T09:20:32.730Z,81.40
2018-02-21T09:23:00.367Z,81.77
2018-02-21T09:25:28.251Z,81.82
2018-02-21T09:27:55.870Z,81.75
2018-02-21T09:30:23.440Z,81.77
2018-02-21T09:32:51.068Z,81.72
2018-02-21T09:35:18.646Z,81.89
2018-02-21T09:37:46.218Z,81.83
2018-02-21T09:40:13.853Z,80.86
2018-02-21T09:42:41.429Z,81.44
2018-02-21T09:45:09.007Z,81.18
2018-02-21T09:47:36.738Z,81.15
2018-02-21T09:50:04.336Z,80.50
2018-02-21T09:52:31.897Z,80.67
2018-02-21T09:54:59.546Z,80.78
2018-02-21T09:57:27.116Z,80.91
2018-02-21T09:59:54.691Z,81.10
2018-02-21T10:02:22.382Z,80.74
2018-02-21T10:04:50.069Z,80.75
2018-02-21T10:07:17.636Z,80.55
2018-02-21T10:09:45.349Z,80.65
2018-02-21T10:12:12.948Z,80.61
2018-02-21T10:14:40.532Z,81.21
2018-02-21T10:17:08.301Z,80.96
2018-02-21T10:19:35.865Z,81.11
2018-02-21T10:22:03.424Z,80.55
2018-02-21T10:24:31.046Z,80.78
2018-02-21T10:26:58.745Z,80.61
2018-02-21T10:29:26.314Z,81.12
2018-02-21T10:31:53.951Z,81.24
2018-02-21T10:34:21.586Z,81.32
2018-02-21T10:36:49.144Z,81.27
2018-02-21T10:39:16.758Z,80.54
2018-02-21T10:41:44.381Z,81.25
2018-02-21T10:44:11.992Z,81.27
2018-02-21T10:46:39.612Z,80.97
2018-02-21T10:49:07.177Z,81.25
2018-02-21T10:51:34.765Z,80.73
2018-02-21T10:54:02.381Z,80.76
2018-02-21T10:56:29.943Z,80.58
2018-02-21T10:58:57.610Z,80.98
2018-02-21T11:01:27.670Z,80.84
2018-02-21T11:03:55.297Z,80.70
2018-02-21T11:06:23.492Z,80.83
2018-02-21T11:08:51.123Z,81.05
2018-02-21T11:11:18.700Z,81.35
2018-02-21T11:13:46.282Z,80.80
2018-02-21T11:16:13.921Z,81.01
2018-02-21T11:18:41.566Z,80.36
2018-02-21T11:21:09.158Z,81.10
2018-02-21T11:23:36.787Z,80.76
2018-02-21T11:26:04.399Z,80.92
2018-02-21T11:28:31.972Z,81.00
2018-02-21T11:30:59.693Z,80.81
2018-02-21T11:33:27.895Z,80.74
2018-02-21T11:35:55.476Z,81.16
2018-02-21T11:38:23.122Z,80.81
2018-02-21T11:40:50.709Z,80.48
2018-02-21T11:43:18.295Z,80.38
2018-02-21T11:45:45.955Z,80.69
2018-02-21T11:48:13.514Z,80.46
2018-02-21T11:50:41.097Z,80.58
2018-02-21T11:53:08.734Z,80.57
2018-02-21T11:55:36.306Z,80.34
2018-02-21T11:58:03.906Z,80.70
2018-02-21T12:00:31.558Z,80.39
2018-02-21T12:02:59.151Z,80.70
2018-02-21T12:05:26.721Z,80.84
2018-02-21T12:07:54.407Z,80.86
2018-02-21T12:10:22.044Z,80.80
2018-02-21T12:12:49.612Z,80.40
2018-02-21T12:15:17.297Z,80.81
2018-02-21T12:17:44.862Z,80.85
2018-02-21T12:20:12.645Z,80.78
2018-02-21T12:22:40.276Z,81.09
2018-02-21T12:25:07.953Z,81.04
2018-02-21T12:27:35.602Z,81.04
2018-02-21T12:30:03.267Z,81.31
2018-02-21T12:32:32.352Z,81.17
2018-02-21T12:35:00.004Z,81.05
2018-02-21T12:37:27.697Z,81.21
2018-02-21T12:39:59.072Z,81.23
2018-02-21T12:42:26.655Z,80.71
2018-02-21T12:44:54.392Z,81.02
2018-02-21T12:47:21.954Z,80.82
2018-02-21T12:49:49.595Z,81.29
2018-02-21T12:52:17.223Z,80.96
2018-02-21T12:54:44.805Z,81.24
2018-02-21T12:57:12.458Z,81.31
2018-02-21T12:59:40.820Z,80.98
2018-02-21T13:02:08.506Z,81.37
2018-02-21T13:04:36.093Z,81.07
2018-02-21T13:07:03.755Z,80.95
2018-02-21T13:09:31.325Z,80.96
2018-02-21T13:11:59.090Z,81.05
2018-02-21T13:14:26.705Z,80.77
2018-02-21T13:16:54.282Z,80.83
2018-02-21T13:19:21.842Z,81.61
2018-02-21T13:21:49.698Z,82.25
2018-02-21T13:24:17.274Z,82.00
2018-02-21T13:26:44.868Z,81.66
2018-02-21T13:29:12.494Z,81.90
2018-02-21T13:31:40.172Z,81.76
2018-02-21T13:34:07.854Z,81.65
2018-02-21T13:36:35.485Z,81.32
2018-02-21T13:39:03.251Z,81.39
2018-02-21T13:41:30.819Z,81.70
2018-02-21T13:43:58.470Z,81.67
2018-02-21T13:46:26.060Z,81.35
2018-02-21T13:48:53.637Z,81.19
2018-02-21T13:51:21.245Z,81.58
2018-02-21T13:53:48.845Z,81.52
2018-02-21T13:56:16.397Z,81.33
2018-02-21T13:58:44.026Z,80.53
2018-02-21T14:01:11.658Z,80.75
2018-02-21T14:03:39.233Z,81.28
2018-02-21T14:06:07.249Z,80.95
2018-02-21T14:08:34.829Z,81.13
2018-02-21T14:11:02.404Z,80.80
2018-02-21T14:13:30.090Z,80.93
2018-02-21T14:15:57.654Z,81.19
2018-02-21T14:18:25.278Z,80.75
2018-02-21T14:20:53.015Z,81.19
2018-02-21T14:23:20.675Z,81.19
2018-02-21T14:25:48.297Z,81.31
2018-02-21T14:28:15.984Z,81.09
2018-02-21T14:30:43.555Z,81.01
2018-02-21T14:33:11.129Z,81.03
2018-02-21T14:35:38.753Z,81.15
2018-02-21T14:38:06.326Z,81.47
2018-02-21T14:40:33.902Z,82.07
2018-02-21T14:43:01.533Z,81.86
2018-02-21T14:45:29.107Z,82.23
2018-02-21T14:47:56.672Z,81.62
2018-02-21T14:50:24.334Z,81.29
2018-02-21T14:52:52.680Z,81.27
2018-02-21T14:55:20.293Z,81.45
2018-02-21T14:57:47.914Z,81.48
2018-02-21T15:00:15.516Z,80.88
2018-02-21T15:02:43.085Z,81.29
2018-02-21T15:05:10.714Z,81.55
2018-02-21T15:07:38.285Z,81.52
2018-02-21T15:10:05.849Z,81.69
2018-02-21T15:12:33.798Z,81.97
2018-02-21T15:15:01.389Z,82.17
2018-02-21T15:17:28.994Z,82.33
2018-02-21T15:19:56.614Z,82.47
2018-02-21T15:22:24.282Z,82.60
2018-02-21T15:24:51.978Z,82.32
2018-02-21T15:27:19.628Z,82.42
2018-02-21T15:29:47.210Z,82.42
2018-02-21T15:32:14.799Z,82.25
2018-02-21T15:34:42.442Z,82.23
2018-02-21T15:37:10.026Z,82.48
2018-02-21T15:39:37.609Z,82.06
2018-02-21T15:42:05.432Z,82.40
2018-02-21T15:44:33.004Z,82.58
2018-02-21T15:47:00.586Z,82.61
2018-02-21T15:49:28.227Z,83.09
2018-02-21T15:51:55.811Z,83.31
2018-02-21T15:54:23.381Z,82.99
2018-02-21T15:56:50.996Z,83.08
2018-02-21T15:59:18.566Z,82.92
2018-02-21T16:01:46.124Z,82.78
2018-02-21T16:04:13.777Z,82.91
2018-02-21T16:06:41.350Z,82.91
2018-02-21T16:09:08.978Z,83.19
2018-02-21T16:11:37.264Z,83.11
2018-02-21T16:14:04.966Z,82.94
2018-02-21T16:16:32.532Z,82.82
2018-02-21T16:19:00.461Z,83.05
2018-02-21T16:21:28.026Z,82.88
2018-02-21T16:23:55.613Z,83.22
2018-02-21T16:26:23.462Z,82.61
2018-02-21T16:28:51.043Z,82.49
2018-02-21T16:31:18.622Z,82.09
2018-02-21T16:33:46.330Z,82.36
2018-02-21T16:36:13.899Z,82.14
2018-02-21T16:38:41.843Z,82.28
2018-02-21T16:41:09.484Z,82.12
2018-02-21T16:43:37.241Z,82.08
2018-02-21T16:46:04.819Z,81.96
2018-02-21T16:48:32.445Z,82.70
2018-02-21T16:51:00.739Z,82.15
2018-02-21T16:53:28.314Z,82.20
2018-02-21T16:55:55.932Z,81.97
2018-02-21T16:58:23.505Z,82.14
2018-02-21T17:00:51.076Z,81.92
2018-02-21T17:03:18.751Z,81.63
2018-02-21T17:05:46.306Z,81.74
2018-02-21T17:08:13.958Z,81.85
2018-02-21T17:10:41.655Z,81.88
2018-02-21T17:13:09.448Z,82.10
2018-02-21T17:15:37.012Z,82.39
2018-02-21T17:18:04.686Z,81.93
2018-02-21T17:20:32.332Z,81.84
2018-02-21T17:22:59.907Z,81.78
2018-02-21T17:25:27.536Z,81.64
2018-02-21T17:27:55.605Z,82.26
2018-02-21T17:30:23.952Z,82.00
2018-02-21T17:32:51.590Z,81.99
2018-02-21T17:35:19.153Z,81.82
2018-02-21T17:37:46.722Z,82.13
2018-02-21T17:40:14.375Z,82.35
2018-02-21T17:42:41.950Z,82.25
2018-02-21T17:45:09.517Z,82.61
2018-02-21T17:47:37.219Z,82.59
2018-02-21T17:50:04.792Z,82.46
2018-02-21T17:52:32.385Z,82.69
2018-02-21T17:55:00.034Z,82.87
2018-02-21T17:57:27.630Z,83.21
2018-02-21T17:59:55.197Z,83.15
2018-02-21T18:02:23.397Z,82.97
2018-02-21T18:04:50.995Z,83.00
2018-02-21T18:07:18.579Z,82.87
2018-02-21T18:09:46.224Z,82.89
2018-02-21T18:12:13.814Z,83.10
2018-02-21T18:14:41.391Z,83.08
2018-02-21T18:17:09.037Z,83.43
2018-02-21T18:19:36.620Z,83.03
2018-02-21T18:22:05.031Z,83.38
2018-02-21T18:24:32.701Z,83.17
2018-02-21T18:27:00.294Z,82.87
2018-02-21T18:29:28.213Z,83.00
2018-02-21T18:31:55.934Z,83.05
2018-02-21T18:34:23.493Z,82.92
2018-02-21T18:36:51.088Z,82.84
2018-02-21T18:39:18.776Z,82.87
2018-02-21T18:41:46.394Z,82.71
2018-02-21T18:44:13.975Z,82.73
2018-02-21T18:46:41.630Z,83.05
2018-02-21T18:49:09.204Z,83.01
2018-02-21T18:51:36.778Z,83.35
2018-02-21T18:54:04.388Z,83.31
2018-02-21T18:56:32.880Z,83.41
2018-02-21T18:59:00.448Z,83.66
2018-02-21T19:01:28.065Z,83.54
2018-02-21T19:03:55.657Z,83.58
2018-02-21T19:06:23.236Z,83.56
2018-02-21T19:08:51.733Z,83.68
2018-02-21T19:11:19.316Z,83.66
2018-02-21T19:13:46.888Z,83.79
2018-02-21T19:16:15.334Z,83.46
2018-02-21T19:18:42.909Z,83.93
2018-02-21T19:21:10.550Z,83.73
2018-02-21T19:23:38.180Z,83.62
2018-02-21T19:26:05.822Z,83.36
2018-02-21T19:28:33.400Z,83.55
2018-02-21T19:31:01.238Z,83.54
2018-02-21T19:33:29.626Z,83.88
2018-02-21T19:35:57.194Z,84.10
2018-02-21T19:38:25.116Z,84.61
2018-02-21T19:40:52.688Z,84.51
2018-02-21T19:43:20.302Z,84.65
2018-02-21T19:45:48.002Z,84.87
2018-02-21T19:48:15.589Z,84.77
2018-02-21T19:50:43.164Z,84.91
2018-02-21T19:53:10.781Z,84.87
2018-02-21T19:55:38.336Z,85.01
2018-02-21T19:58:05.922Z,84.89
2018-02-21T20:00:33.606Z,84.68
2018-02-21T20:03:01.378Z,84.42
2018-02-21T20:05:28.955Z,84.53
2018-02-21T20:07:56.590Z,84.56
2018-02-21T20:10:24.144Z,84.92
2018-02-21T20:12:51.713Z,84.93
2018-02-21T20:15:19.726Z,84.72
2018-02-21T20:17:47.342Z,84.44
2018-02-21T20:20:14.938Z,84.74
2018-02-21T20:22:42.641Z,84.90
2018-02-21T20:25:10.200Z,84.62
2018-02-21T20:27:37.795Z,84.56
2018-02-21T20:30:05.436Z,84.82
2018-02-21T20:32:33.046Z,84.96
2018-02-21T20:35:00.667Z,84.75
2018-02-21T20:37:28.285Z,84.97
2018-02-21T20:39:55.876Z,84.82
2018-02-21T20:42:23.461Z,84.90
2018-02-21T20:44:51.079Z,84.94
2018-02-21T20:47:18.730Z,84.88
2018-02-21T20:49:46.310Z,84.74
2018-02-21T20:52:14.033Z,84.69
2018-02-21T20:54:41.636Z,84.36
2018-02-21T20:57:09.201Z,84.46
2018-02-21T20:59:36.929Z,84.52
2018-02-21T21:02:04.512Z,84.48
2018-02-21T21:04:32.166Z,84.41
2018-02-21T21:06:59.820Z,84.96
2018-02-21T21:09:27.380Z,85.00
2018-02-21T21:11:55.020Z,84.90
2018-02-21T21:14:22.711Z,84.86
2018-02-21T21:16:50.346Z,84.67
2018-02-21T21:19:17.922Z,84.71
2018-02-21T21:21:45.546Z,84.65
2018-02-21T21:24:13.142Z,84.73
2018-02-21T21:26:40.776Z,84.50
2018-02-21T21:29:08.400Z,84.37
2018-02-21T21:31:35.968Z,84.53
2018-02-21T21:34:03.762Z,84.52
2018-02-21T21:36:31.408Z,84.42
2018-02-21T21:38:59.050Z,84.66
2018-02-21T21:41:26.679Z,84.48
2018-02-21T21:43:54.304Z,84.62
2018-02-21T21:46:21.876Z,84.35
2018-02-21T21:48:49.448Z,84.66
2018-02-21T21:51:17.082Z,84.79
2018-02-21T21:53:44.678Z,84.83
2018-02-21T21:56:12.276Z,84.95
2018-02-21T21:58:39.908Z,85.16
2018-02-21T22:01:07.705Z,84.87
2018-02-21T22:03:35.280Z,84.79
2018-02-21T22:06:03.457Z,84.68
2018-02-21T22:08:31.017Z,84.34
2018-02-21T22:10:58.582Z,84.58
2018-02-21T22:13:26.249Z,84.76
2018-02-21T22:15:53.801Z,84.76
2018-02-21T22:18:21.380Z,84.48
2018-02-21T22:20:49.049Z,84.13
2018-02-21T22:23:16.624Z,84.16
2018-02-21T22:25:44.196Z,84.02
2018-02-21T22:28:13.503Z,83.92
2018-02-21T22:30:41.076Z,84.31
2018-02-21T22:33:08.658Z,84.11
2018-02-21T22:35:36.587Z,84.00
2018-02-21T22:38:04.162Z,84.00
2018-02-21T22:40:31.734Z,84.07
2018-02-21T22:42:59.420Z,84.03
2018-02-21T22:45:26.998Z,84.36
2018-02-21T22:47:54.630Z,84.33
2018-02-21T22:50:22.249Z,84.67
2018-02-21T22:52:49.830Z,84.68
2018-02-21T22:55:17.426Z,84.51
2018-02-21T22:57:45.083Z,84.37
2018-02-21T23:00:12.782Z,84.81
2018-02-21T23:02:40.369Z,84.56
2018-02-21T23:05:08.038Z,84.45
2018-02-21T23:07:35.596Z,84.68
2018-02-21T23:10:03.246Z,84.59
2018-02-21T23:12:30.874Z,84.71
2018-02-21T23:14:58.439Z,84.38
2018-02-21T23:17:25.996Z,84.52
2018-02-21T23:19:53.600Z,84.32
2018-02-21T23:22:21.161Z,84.26
2018-02-21T23:24:48.737Z,84.50
2018-02-21T23:27:16.355Z,84.15
2018-02-21T23:29:44.369Z,83.91
2018-02-21T23:32:11.936Z,83.98
2018-02-21T23:34:39.586Z,83.82
2018-02-21T23:37:07.362Z,83.22
2018-02-21T23:39:34.956Z,83.66
2018-02-21T23:42:02.657Z,83.71
2018-02-21T23:44:30.226Z,83.74
2018-02-21T23:46:58.173Z,83.56
2018-02-21T23:49:25.808Z,83.49
2018-02-21T23:51:53.434Z,83.61
2018-02-21T23:54:20.997Z,83.53
2018-02-21T23:56:48.622Z,83.30
2018-02-21T23:59:16.180Z,83.46
